Terminal Aerodrome Forecast
Issued by NWS Amarillo, TX

Home | Current Version | Previous Version | Text Only | Print | Product List | Glossary On
Versions: 1 2 3 4 5 6 7 8 9 10 11 12 13 14 15 16 17 18 19
000
FTUS44 KAMA 230500
TAFAMA
TAF
KAMA 230520Z 2306/2406 20014KT P6SM VCTS BKN090CB
      TEMPO 2306/2310 VRB25G35KT 5SM -TSRA BKN040CB
     FM231000 20012KT P6SM BKN120
     FM231500 21018G28KT P6SM SCT080
     FM240100 18016KT P6SM SCT120=

USA.gov is the U.S. government's official web portal to all federal, state and local government web resources and services.